Time;durP1;ratioP1;P1;durP2;ratioP2;P2;SDS_P1;SDS_P2;PMS_P1;PMS_P2;Temp;Humidity;BMP_temperature;BMP_pressure;BME280_temperature;BME280_humidity;BME280_pressure;Samples;Min_cycle;Max_cycle;Signal;HPM_P1;HPM_P2
2024/01/16 00:01:11;;;;;;;20.23;16.20;;;11.30;96.70;;;;;;5081336;28;20121;-72
2024/01/16 00:07:09;;;;;;;21.48;16.23;;;11.30;96.70;;;;;;4981638;28;20069;-71
2024/01/16 00:09:38;;;;;;;22.30;15.68;;;11.30;96.70;;;;;;5056258;28;20056;-70
2024/01/16 00:12:07;;;;;;;19.90;15.75;;;11.30;96.70;;;;;;5088865;28;20154;-71
2024/01/16 00:14:39;;;;;;;21.45;15.55;;;11.20;96.70;;;;;;5089628;28;20479;-71
2024/01/16 00:18:16;;;;;;;22.02;14.93;;;11.20;96.70;;;;;;5057766;28;20176;-71
2024/01/16 00:20:51;;;;;;;21.05;16.35;;;11.30;96.70;;;;;;5049853;28;20052;-71
2024/01/16 00:23:22;;;;;;;20.88;14.70;;;11.20;96.70;;;;;;5033930;28;20055;-71
2024/01/16 00:25:51;;;;;;;19.42;15.75;;;11.20;96.70;;;;;;5052629;28;20068;-71
2024/01/16 00:29:16;;;;;;;21.52;15.13;;;11.20;96.70;;;;;;5064516;28;20481;-71
2024/01/16 00:31:45;;;;;;;21.38;14.13;;;11.20;96.70;;;;;;5075190;28;20348;-69
2024/01/16 00:34:59;;;;;;;19.27;14.48;;;11.10;96.70;;;;;;5046918;28;20088;-71
2024/01/16 00:37:27;;;;;;;17.25;13.80;;;11.10;96.70;;;;;;5081519;28;20060;-70
2024/01/16 00:43:49;;;;;;;19.25;13.95;;;11.10;96.70;;;;;;5047921;28;20050;-70
2024/01/16 00:46:19;;;;;;;19.13;13.93;;;11.10;96.70;;;;;;5060335;28;20323;-71
2024/01/16 00:48:48;;;;;;;18.00;12.82;;;11.00;96.70;;;;;;5062324;28;20067;-70
2024/01/16 00:51:18;;;;;;;17.90;13.48;;;11.10;96.70;;;;;;5086588;28;20118;-72
2024/01/16 00:53:47;;;;;;;18.52;13.48;;;11.10;96.70;;;;;;5094358;27;20043;-71
2024/01/16 00:56:16;;;;;;;18.30;13.77;;;11.10;96.70;;;;;;5079917;28;20496;-71
2024/01/16 00:58:45;;;;;;;17.80;13.52;;;11.10;96.70;;;;;;5096152;28;20067;-71
2024/01/16 01:01:16;;;;;;;16.90;14.23;;;11.10;96.70;;;;;;5082939;28;20051;-71
2024/01/16 01:03:46;;;;;;;18.77;14.50;;;11.00;96.70;;;;;;5093331;28;20125;-71
2024/01/16 01:06:15;;;;;;;15.73;13.40;;;11.00;96.70;;;;;;5090561;28;20060;-69
2024/01/16 01:08:44;;;;;;;18.48;12.55;;;11.00;96.70;;;;;;5084043;28;20060;-71
2024/01/16 01:11:51;;;;;;;20.92;12.82;;;11.00;96.70;;;;;;5080135;28;20043;-71
2024/01/16 01:14:20;;;;;;;15.75;12.85;;;10.90;96.70;;;;;;5088549;28;20074;-72
2024/01/16 01:16:50;;;;;;;15.15;12.07;;;10.80;96.70;;;;;;5087304;28;20790;-71
2024/01/16 01:22:50;;;;;;;17.02;12.80;;;10.70;96.70;;;;;;5082132;28;20060;-71
2024/01/16 01:25:18;;;;;;;17.25;13.05;;;10.70;96.70;;;;;;5065926;28;20044;-71
2024/01/16 01:27:47;;;;;;;16.58;12.65;;;10.60;96.70;;;;;;5074269;28;20138;-70
2024/01/16 01:30:16;;;;;;;15.27;11.82;;;10.50;96.70;;;;;;5095229;28;20071;-71
2024/01/16 01:32:47;;;;;;;17.85;13.05;;;10.50;96.70;;;;;;5070311;28;20064;-71
2024/01/16 01:35:19;;;;;;;16.45;12.77;;;10.60;96.70;;;;;;5102230;28;20055;-71
2024/01/16 01:37:59;;;;;;;18.17;13.32;;;10.60;96.70;;;;;;5087607;28;20052;-71
2024/01/16 01:40:28;;;;;;;15.10;12.43;;;10.50;96.70;;;;;;5085578;28;20083;-71
2024/01/16 01:43:24;;;;;;;15.20;12.75;;;10.50;96.70;;;;;;5068413;28;20048;-71
2024/01/16 01:50:04;;;;;;;;;;;;;;;;;;;;;
2024/01/16 01:52:45;;;;;;;18.48;13.10;;;10.50;96.70;;;;;;5096045;28;20055;-72
2024/01/16 01:55:16;;;;;;;18.27;13.10;;;10.40;96.70;;;;;;5060354;28;20058;-71
2024/01/16 01:57:45;;;;;;;14.95;12.43;;;10.40;96.70;;;;;;5071613;28;20089;-71
2024/01/16 02:00:17;;;;;;;17.25;13.27;;;10.40;96.70;;;;;;5086640;28;20048;-71
2024/01/16 02:02:47;;;;;;;17.75;13.75;;;10.40;96.70;;;;;;5077422;28;20109;-72
2024/01/16 02:05:19;;;;;;;15.82;13.27;;;10.50;96.70;;;;;;5086410;28;20050;-71
2024/01/16 02:11:11;;;;;;;19.27;13.38;;;10.50;96.70;;;;;;5078602;28;20044;-71
2024/01/16 02:13:41;;;;;;;18.95;13.25;;;10.30;96.70;;;;;;5089466;28;20496;-70
2024/01/16 02:16:19;;;;;;;17.60;13.60;;;10.30;96.70;;;;;;5088063;28;20056;-71
2024/01/16 02:18:51;;;;;;;17.48;12.70;;;10.30;96.70;;;;;;5086077;28;20279;-72
2024/01/16 02:21:26;;;;;;;17.05;13.02;;;10.30;96.70;;;;;;5085861;28;20109;-71
2024/01/16 02:23:58;;;;;;;16.63;13.43;;;10.20;96.70;;;;;;5087218;28;20318;-71
2024/01/16 02:29:42;;;;;;;15.77;12.30;;;10.30;96.70;;;;;;5083325;28;20052;-72
2024/01/16 02:32:13;;;;;;;18.30;12.47;;;10.20;96.70;;;;;;5087956;28;20163;-71
2024/01/16 02:34:54;;;;;;;16.83;13.00;;;10.20;96.70;;;;;;5058907;28;20084;-71
2024/01/16 02:42:14;;;;;;;18.48;13.52;;;10.20;96.70;;;;;;5070865;28;20042;-71
2024/01/16 02:44:43;;;;;;;15.40;11.73;;;10.20;96.70;;;;;;5086226;28;20086;-72
2024/01/16 02:47:15;;;;;;;16.83;12.35;;;10.20;96.70;;;;;;5068197;28;20470;-70
2024/01/16 02:49:47;;;;;;;13.70;11.18;;;10.20;96.70;;;;;;5094335;28;20326;-71
2024/01/16 02:55:43;;;;;;;15.52;11.00;;;10.10;96.70;;;;;;5092267;28;20403;-71
2024/01/16 02:58:15;;;;;;;14.60;11.55;;;10.00;96.70;;;;;;5088476;28;20151;-71
2024/01/16 03:00:47;;;;;;;15.35;12.50;;;10.00;96.70;;;;;;5093515;28;20043;-71
2024/01/16 03:03:17;;;;;;;14.90;11.63;;;10.00;96.70;;;;;;5082943;28;20150;-71
2024/01/16 03:05:46;;;;;;;15.05;12.95;;;9.90;96.70;;;;;;5095109;28;20074;-70
2024/01/16 03:08:16;;;;;;;15.23;12.50;;;9.90;96.70;;;;;;5087966;28;20048;-72
2024/01/16 03:10:45;;;;;;;15.63;11.90;;;9.80;96.70;;;;;;5082784;28;20047;-71
2024/01/16 03:13:32;;;;;;;15.85;11.95;;;9.80;96.70;;;;;;5086001;28;20108;-70
2024/01/16 03:20:22;;;;;;;14.38;10.40;;;9.80;96.70;;;;;;5041944;28;20063;-72
2024/01/16 03:26:42;;;;;;;14.20;11.10;;;9.80;96.70;;;;;;5034230;28;20677;-71
2024/01/16 03:29:13;;;;;;;11.90;10.55;;;9.90;96.70;;;;;;5008979;28;20141;-71
2024/01/16 03:31:42;;;;;;;15.18;11.20;;;9.90;96.70;;;;;;5063537;28;20048;-71
2024/01/16 03:34:11;;;;;;;13.10;10.30;;;9.90;96.70;;;;;;5089520;28;20059;-71
2024/01/16 03:37:48;;;;;;;13.05;10.98;;;9.90;96.70;;;;;;5075551;28;20054;-71
2024/01/16 03:41:18;;;;;;;13.27;10.75;;;9.90;96.70;;;;;;5102874;28;20043;-71
2024/01/16 03:43:54;;;;;;;13.45;10.55;;;10.00;96.70;;;;;;5088447;28;20066;-71
2024/01/16 03:47:03;;;;;;;13.65;10.25;;;10.10;96.70;;;;;;5049813;28;20062;-71
2024/01/16 03:49:32;;;;;;;16.90;11.18;;;10.10;96.70;;;;;;5088981;28;20138;-71
2024/01/16 03:52:02;;;;;;;13.45;11.27;;;10.10;96.70;;;;;;5089954;28;20051;-71
2024/01/16 03:54:31;;;;;;;13.10;11.10;;;10.10;96.70;;;;;;5088867;28;21254;-71
2024/01/16 03:57:00;;;;;;;15.77;10.88;;;10.10;96.70;;;;;;5063006;28;20150;-71
2024/01/16 03:59:29;;;;;;;14.35;11.10;;;10.10;96.70;;;;;;5094166;28;20048;-71
2024/01/16 04:01:58;;;;;;;14.55;10.63;;;10.10;96.70;;;;;;5090499;28;20047;-71
2024/01/16 04:04:58;;;;;;;11.93;9.73;;;10.10;96.70;;;;;;5062422;28;20502;-72
2024/01/16 04:07:27;;;;;;;13.45;9.77;;;10.20;96.70;;;;;;5072745;28;20059;-71
2024/01/16 04:09:56;;;;;;;12.13;10.05;;;10.20;96.70;;;;;;5064183;27;20089;-70
2024/01/16 04:12:26;;;;;;;12.55;9.65;;;10.10;96.70;;;;;;5093880;28;20054;-71
2024/01/16 04:14:58;;;;;;;11.50;9.52;;;10.10;96.70;;;;;;5097710;28;20454;-71
2024/01/16 04:17:27;;;;;;;12.85;10.52;;;10.10;96.70;;;;;;5103606;28;20051;-72
2024/01/16 04:20:44;;;;;;;14.50;10.20;;;10.10;96.70;;;;;;5000302;28;20071;-71
2024/01/16 04:23:13;;;;;;;13.70;10.02;;;10.20;96.70;;;;;;5011308;28;20071;-71
2024/01/16 04:25:48;;;;;;;12.55;10.25;;;10.20;96.70;;;;;;5083099;28;20056;-71
2024/01/16 04:28:17;;;;;;;14.50;11.05;;;10.10;96.70;;;;;;5091714;28;20087;-71
2024/01/16 04:30:47;;;;;;;12.98;10.43;;;10.10;96.70;;;;;;5091766;28;20051;-71
2024/01/16 04:33:16;;;;;;;13.75;10.07;;;10.10;96.70;;;;;;5085773;28;20060;-70
2024/01/16 04:35:47;;;;;;;13.88;11.02;;;10.10;96.70;;;;;;5092538;28;20063;-71
2024/01/16 04:43:24;;;;;;;13.48;10.25;;;10.00;96.70;;;;;;5027116;28;20167;-71
2024/01/16 04:45:54;;;;;;;14.43;10.82;;;10.00;96.70;;;;;;5088883;28;20681;-71
2024/01/16 04:48:23;;;;;;;12.95;9.27;;;9.90;96.70;;;;;;5082211;28;20059;-71
2024/01/16 04:51:47;;;;;;;12.27;9.50;;;10.00;96.70;;;;;;5084819;28;20105;-70
2024/01/16 04:54:17;;;;;;;12.85;10.43;;;10.00;96.70;;;;;;5089629;28;20051;-71
2024/01/16 05:01:16;;;;;;;;;;;;;;;;;;;;;
2024/01/16 05:03:48;;;;;;;13.98;10.95;;;9.90;96.70;;;;;;5080055;28;20074;-71
2024/01/16 05:06:17;;;;;;;16.13;11.13;;;9.90;96.70;;;;;;5066047;28;20056;-71
2024/01/16 05:08:49;;;;;;;15.15;11.68;;;9.90;96.70;;;;;;5085153;28;20055;-72
2024/01/16 05:11:19;;;;;;;14.77;11.68;;;9.90;96.70;;;;;;5088857;28;20048;-72
2024/01/16 05:13:48;;;;;;;13.68;11.10;;;9.80;96.70;;;;;;5087068;28;20052;-71
2024/01/16 05:16:17;;;;;;;14.07;10.93;;;9.80;96.70;;;;;;5085594;28;20059;-71
2024/01/16 05:19:25;;;;;;;12.93;10.05;;;9.90;96.70;;;;;;5017399;28;20105;-71
2024/01/16 05:22:03;;;;;;;13.57;10.60;;;9.90;96.70;;;;;;5069313;28;20104;-71
2024/01/16 05:24:36;;;;;;;15.60;10.70;;;9.80;96.70;;;;;;5088490;28;20097;-71
2024/01/16 05:27:05;;;;;;;13.68;11.20;;;9.80;96.70;;;;;;5087267;28;20504;-71
2024/01/16 05:30:17;;;;;;;15.90;11.85;;;9.80;96.70;;;;;;5079673;28;20050;-71
2024/01/16 05:32:28;;;;;;;17.52;11.55;;;9.80;96.70;;;;;;5097376;28;20063;-71
2024/01/16 05:34:57;;;;;;;15.70;10.75;;;9.70;96.70;;;;;;5073084;28;20051;-71
2024/01/16 05:37:29;;;;;;;15.50;11.32;;;9.70;96.70;;;;;;5087450;28;20545;-71
2024/01/16 05:44:53;;;;;;;15.52;11.65;;;9.60;96.70;;;;;;4999404;28;20419;-71
2024/01/16 06:06:17;;;;;;;14.45;10.70;;;9.40;96.70;;;;;;5106513;27;20050;-71
2024/01/16 06:10:21;;;;;;;;;;;;;;;;;;;;;
2024/01/16 06:26:53;;;;;;;21.70;12.63;;;9.20;96.70;;;;;;5107833;27;20136;-71
2024/01/16 06:29:23;;;;;;;17.58;12.57;;;9.10;96.70;;;;;;5081906;28;20139;-71
2024/01/16 06:32:47;;;;;;;20.25;12.90;;;9.20;96.70;;;;;;5098660;27;20653;-71
2024/01/16 06:36:07;;;;;;;16.98;12.30;;;9.20;96.70;;;;;;5076248;28;20058;-71
2024/01/16 06:38:39;;;;;;;18.38;11.07;;;9.30;96.70;;;;;;5086764;28;20424;-71
2024/01/16 06:41:10;;;;;;;16.35;11.23;;;9.20;96.70;;;;;;5086782;28;20500;-71
2024/01/16 06:43:56;;;;;;;13.88;10.23;;;9.30;96.70;;;;;;5084439;28;20060;-71
2024/01/16 06:46:25;;;;;;;16.10;11.32;;;9.30;96.70;;;;;;5075802;28;20224;-71
2024/01/16 06:48:54;;;;;;;14.23;10.68;;;9.30;96.70;;;;;;5077767;28;20079;-71
2024/01/16 06:51:24;;;;;;;12.95;9.82;;;9.30;96.70;;;;;;5084728;28;20438;-71
2024/01/16 06:54:07;;;;;;;11.75;10.07;;;9.20;96.70;;;;;;5083427;28;20508;-71
2024/01/16 06:56:46;;;;;;;15.52;10.23;;;9.20;96.70;;;;;;5086773;28;20126;-71
2024/01/16 07:07:06;;;;;;;16.30;10.55;;;9.20;96.70;;;;;;5097970;28;20058;-72
2024/01/16 07:09:35;;;;;;;13.13;10.07;;;9.30;96.70;;;;;;5087003;28;20055;-71
2024/01/16 07:12:04;;;;;;;15.13;9.20;;;9.30;96.70;;;;;;5090970;28;20526;-71
2024/01/16 07:14:33;;;;;;;13.80;8.85;;;9.20;96.70;;;;;;5084182;28;20106;-72
2024/01/16 07:17:03;;;;;;;14.18;9.48;;;9.30;96.70;;;;;;5089866;28;20062;-71
2024/01/16 07:19:34;;;;;;;16.67;9.80;;;9.30;96.70;;;;;;5082727;28;20056;-72
2024/01/16 07:22:04;;;;;;;13.57;8.95;;;9.40;96.70;;;;;;5087349;28;20062;-72
2024/01/16 07:24:33;;;;;;;14.00;9.30;;;9.50;96.70;;;;;;5090396;27;20105;-71
2024/01/16 07:27:02;;;;;;;13.18;9.45;;;9.50;96.70;;;;;;5087607;28;20055;-72
2024/01/16 07:29:32;;;;;;;13.02;9.23;;;9.50;96.70;;;;;;5083926;28;20448;-71
2024/01/16 07:32:01;;;;;;;13.82;9.45;;;9.60;96.70;;;;;;5074956;28;20051;-70
2024/01/16 07:34:33;;;;;;;15.90;10.00;;;9.70;96.70;;;;;;5083307;28;20454;-70
2024/01/16 07:37:02;;;;;;;15.57;9.10;;;9.70;96.70;;;;;;5090171;28;20056;-71
2024/01/16 07:39:31;;;;;;;14.02;8.65;;;9.70;96.70;;;;;;5070026;28;20083;-71
2024/01/16 07:42:01;;;;;;;16.77;9.90;;;9.80;96.70;;;;;;5088789;28;20532;-71
2024/01/16 07:44:31;;;;;;;17.95;9.90;;;9.80;96.70;;;;;;5089937;28;20649;-72
2024/01/16 07:47:02;;;;;;;15.63;9.65;;;9.80;96.70;;;;;;5092085;28;20055;-72
2024/01/16 07:49:32;;;;;;;14.07;8.85;;;9.90;96.70;;;;;;5087811;28;20052;-71
2024/01/16 07:52:01;;;;;;;14.45;9.45;;;9.90;96.70;;;;;;5088183;28;20051;-72
2024/01/16 07:54:33;;;;;;;12.65;8.45;;;9.90;96.70;;;;;;5084846;28;20566;-72
2024/01/16 07:57:04;;;;;;;13.52;9.57;;;10.00;96.70;;;;;;5090804;28;20063;-72
2024/01/16 07:59:33;;;;;;;16.52;9.25;;;10.10;96.70;;;;;;5087382;28;20491;-72
2024/01/16 08:02:01;;;;;;;11.65;9.05;;;10.20;96.70;;;;;;5073155;28;20515;-72
2024/01/16 08:04:31;;;;;;;13.27;9.63;;;10.20;96.70;;;;;;5082392;28;21433;-71
2024/01/16 08:07:04;;;;;;;19.58;10.25;;;10.10;96.70;;;;;;5090731;28;20150;-71
2024/01/16 08:09:32;;;;;;;14.75;8.80;;;10.10;96.70;;;;;;5090346;28;20652;-72
2024/01/16 08:12:02;;;;;;;13.27;9.48;;;10.20;96.70;;;;;;5087300;28;20177;-71
2024/01/16 08:14:31;;;;;;;17.45;10.15;;;10.20;96.70;;;;;;5084148;28;20056;-72
2024/01/16 08:17:02;;;;;;;15.15;10.63;;;10.20;96.70;;;;;;5091139;28;20142;-72
2024/01/16 08:19:32;;;;;;;15.88;10.45;;;10.20;96.70;;;;;;5106663;27;20069;-71
2024/01/16 08:22:04;;;;;;;17.98;10.20;;;10.20;96.70;;;;;;5089800;28;20048;-72
2024/01/16 08:24:38;;;;;;;12.93;9.38;;;10.20;96.70;;;;;;5101915;28;20108;-71
2024/01/16 08:27:07;;;;;;;15.57;9.68;;;10.20;96.70;;;;;;5082440;28;20606;-70
2024/01/16 08:29:35;;;;;;;13.13;9.70;;;10.20;96.70;;;;;;5082084;28;20516;-71
2024/01/16 08:32:05;;;;;;;13.50;9.32;;;10.30;96.70;;;;;;5089842;28;20059;-72
2024/01/16 08:34:33;;;;;;;12.68;8.90;;;10.30;96.70;;;;;;5091848;28;20047;-72
2024/01/16 08:37:07;;;;;;;13.07;9.15;;;10.40;96.70;;;;;;5090323;28;20451;-72
2024/01/16 08:39:38;;;;;;;15.30;9.43;;;10.40;96.70;;;;;;5078263;28;20147;-72
2024/01/16 08:42:11;;;;;;;15.23;10.23;;;10.40;96.70;;;;;;5087058;28;20180;-72
2024/01/16 08:44:40;;;;;;;17.73;10.10;;;10.50;96.70;;;;;;5088627;28;20133;-72
2024/01/16 08:47:10;;;;;;;16.88;10.32;;;10.50;96.70;;;;;;5085197;28;20607;-72
2024/01/16 08:49:38;;;;;;;18.38;10.48;;;10.50;96.70;;;;;;5065175;28;20408;-72
2024/01/16 08:52:09;;;;;;;14.20;10.32;;;10.50;96.70;;;;;;5077842;28;20535;-72
2024/01/16 08:54:38;;;;;;;14.80;10.60;;;10.60;96.70;;;;;;5088556;28;20060;-71
2024/01/16 08:57:07;;;;;;;16.42;11.20;;;10.60;96.70;;;;;;5090428;28;20582;-72
2024/01/16 08:59:38;;;;;;;15.45;10.90;;;10.60;96.70;;;;;;5072007;28;20056;-72
2024/01/16 09:02:06;;;;;;;19.33;11.50;;;10.70;96.70;;;;;;5086058;28;20052;-71
2024/01/16 09:04:34;;;;;;;15.73;10.68;;;10.70;96.70;;;;;;5073500;28;20058;-71
2024/01/16 09:07:04;;;;;;;18.67;11.10;;;10.80;96.70;;;;;;5106765;28;20051;-71
2024/01/16 09:09:35;;;;;;;17.70;11.15;;;10.80;96.70;;;;;;5092595;28;20159;-72
2024/01/16 09:12:08;;;;;;;14.82;11.38;;;10.80;96.70;;;;;;5090205;28;20062;-72
2024/01/16 09:14:36;;;;;;;19.92;11.82;;;10.80;96.70;;;;;;5087612;28;20060;-71
2024/01/16 09:17:05;;;;;;;16.17;11.30;;;10.80;96.70;;;;;;5107870;28;20055;-72
2024/01/16 09:19:33;;;;;;;14.68;11.45;;;10.80;96.70;;;;;;5086805;28;20646;-71
2024/01/16 09:22:01;;;;;;;15.68;10.95;;;10.80;96.70;;;;;;5080945;28;20404;-72
2024/01/16 09:24:32;;;;;;;16.77;10.55;;;10.80;96.70;;;;;;5086355;28;20104;-72
2024/01/16 09:27:06;;;;;;;16.05;11.65;;;10.80;96.70;;;;;;5086206;28;20059;-71
2024/01/16 09:29:35;;;;;;;18.08;12.82;;;10.90;96.70;;;;;;5090145;28;20742;-71
2024/01/16 09:32:03;;;;;;;19.27;12.98;;;10.90;96.70;;;;;;5080212;28;20052;-71
2024/01/16 09:34:31;;;;;;;15.98;11.40;;;10.90;96.70;;;;;;5089403;28;20063;-71
2024/01/16 09:37:02;;;;;;;13.82;10.57;;;10.90;96.70;;;;;;5085492;28;20508;-72
2024/01/16 09:39:31;;;;;;;15.40;11.13;;;11.00;96.70;;;;;;5086149;28;20059;-71
2024/01/16 09:42:01;;;;;;;16.92;11.45;;;11.10;96.70;;;;;;5101723;28;20058;-71
2024/01/16 09:44:31;;;;;;;24.17;12.60;;;11.10;96.70;;;;;;5089904;28;20059;-72
2024/01/16 09:47:02;;;;;;;18.15;11.85;;;11.20;96.70;;;;;;5084308;28;20498;-72
2024/01/16 09:49:31;;;;;;;16.80;11.60;;;11.40;96.70;;;;;;5079602;28;20109;-71
2024/01/16 09:52:01;;;;;;;18.95;12.70;;;11.50;96.70;;;;;;5086266;28;20052;-72
2024/01/16 09:54:29;;;;;;;15.80;11.25;;;11.60;96.70;;;;;;5079308;28;20072;-72
2024/01/16 09:57:02;;;;;;;18.15;11.63;;;11.70;96.70;;;;;;5103852;28;20056;-71
2024/01/16 09:59:33;;;;;;;17.27;11.73;;;11.80;96.70;;;;;;5072254;28;20469;-71
2024/01/16 10:02:05;;;;;;;16.38;10.88;;;11.90;96.70;;;;;;5072896;28;20054;-71
2024/01/16 10:04:34;;;;;;;16.38;10.80;;;12.00;96.70;;;;;;5086008;28;20060;-72
2024/01/16 10:07:05;;;;;;;13.02;9.90;;;12.20;96.70;;;;;;5085344;28;20543;-72
2024/01/16 10:09:38;;;;;;;14.95;8.75;;;12.30;96.70;;;;;;5082675;28;20060;-72
2024/01/16 10:12:10;;;;;;;12.95;9.23;;;12.40;96.70;;;;;;5084466;28;20040;-72
2024/01/16 10:14:40;;;;;;;12.68;8.27;;;12.50;96.70;;;;;;5060199;28;20069;-72
2024/01/16 10:17:14;;;;;;;13.82;8.60;;;12.60;96.70;;;;;;5105663;28;20147;-71
2024/01/16 10:19:49;;;;;;;13.10;9.43;;;12.70;96.70;;;;;;5107662;28;20463;-72
2024/01/16 10:22:27;;;;;;;18.95;10.07;;;12.80;96.70;;;;;;5085521;28;20052;-72
2024/01/16 10:25:05;;;;;;;13.90;8.93;;;12.90;96.70;;;;;;5073654;28;20059;-72
2024/01/16 10:27:35;;;;;;;16.42;9.68;;;13.00;96.70;;;;;;5064244;28;20424;-72
2024/01/16 10:30:05;;;;;;;10.77;8.00;;;13.00;96.70;;;;;;5080402;28;20048;-71
2024/01/16 10:32:35;;;;;;;10.85;7.82;;;13.10;96.70;;;;;;5084997;28;20056;-72
2024/01/16 10:35:10;;;;;;;14.02;8.07;;;13.20;96.70;;;;;;5076767;28;20130;-72
2024/01/16 10:37:48;;;;;;;12.40;8.25;;;13.30;96.70;;;;;;5085481;28;20500;-71
2024/01/16 10:40:19;;;;;;;18.15;9.35;;;13.50;96.70;;;;;;5081241;28;20079;-72
2024/01/16 10:42:59;;;;;;;13.68;8.65;;;13.60;96.70;;;;;;5069706;28;20142;-71
2024/01/16 10:45:29;;;;;;;17.38;9.23;;;13.70;96.70;;;;;;5089499;28;20055;-71
2024/01/16 10:48:05;;;;;;;14.13;8.60;;;14.00;96.70;;;;;;5072415;28;20171;-72
2024/01/16 10:50:35;;;;;;;12.18;8.32;;;14.00;96.70;;;;;;5061650;28;20805;-71
2024/01/16 10:53:05;;;;;;;15.73;8.93;;;14.10;96.70;;;;;;5101732;28;20067;-71
2024/01/16 10:55:43;;;;;;;13.82;8.18;;;14.10;96.70;;;;;;5086666;28;20056;-71
2024/01/16 10:58:13;;;;;;;17.10;8.77;;;14.20;96.70;;;;;;5088143;28;20059;-72
2024/01/16 11:00:46;;;;;;;18.45;8.30;;;14.40;96.70;;;;;;5088433;28;20052;-71
2024/01/16 11:03:23;;;;;;;13.82;7.47;;;14.50;96.70;;;;;;5085167;28;20052;-72
2024/01/16 11:05:57;;;;;;;11.98;7.78;;;14.60;96.70;;;;;;5069815;28;20516;-72
2024/01/16 11:08:30;;;;;;;13.40;8.18;;;14.50;96.70;;;;;;5088029;28;20055;-72
2024/01/16 11:11:00;;;;;;;13.20;7.43;;;14.40;96.70;;;;;;5087351;28;20052;-72
2024/01/16 11:13:30;;;;;;;14.43;7.25;;;14.30;96.70;;;;;;5087870;28;20047;-72
2024/01/16 11:16:03;;;;;;;15.27;7.10;;;14.30;96.70;;;;;;5088733;28;20616;-72
2024/01/16 11:18:34;;;;;;;14.68;7.00;;;14.30;96.70;;;;;;5087584;28;20063;-71
2024/01/16 11:21:07;;;;;;;12.70;6.40;;;14.30;96.70;;;;;;5080420;28;20104;-71
2024/01/16 11:23:41;;;;;;;12.35;6.25;;;14.20;96.70;;;;;;5089191;28;20116;-72
2024/01/16 11:26:32;;;;;;;11.07;6.28;;;14.20;96.70;;;;;;5084110;28;20780;-72
2024/01/16 11:29:36;;;;;;;11.48;7.13;;;14.20;96.70;;;;;;5070037;28;20539;-72
2024/01/16 11:32:06;;;;;;;10.95;6.25;;;14.20;96.70;;;;;;5077540;28;20052;-72
2024/01/16 11:34:55;;;;;;;14.57;7.20;;;14.10;96.70;;;;;;5074228;28;20777;-72
2024/01/16 11:37:32;;;;;;;14.05;6.85;;;14.10;96.70;;;;;;5083954;28;20062;-72
2024/01/16 11:40:26;;;;;;;17.20;8.10;;;14.00;96.70;;;;;;5078454;28;20074;-72
2024/01/16 11:42:55;;;;;;;15.57;6.43;;;14.00;96.70;;;;;;5086772;28;20160;-72
2024/01/16 11:45:50;;;;;;;11.65;6.40;;;13.90;96.70;;;;;;5086006;28;20059;-72
2024/01/16 11:48:21;;;;;;;14.90;5.82;;;13.90;96.70;;;;;;5077533;28;20056;-72
2024/01/16 11:50:50;;;;;;;12.68;6.10;;;13.80;96.70;;;;;;5085642;28;20583;-71
2024/01/16 11:53:41;;;;;;;19.83;7.53;;;13.80;96.70;;;;;;5086909;28;20596;-70
2024/01/16 11:56:35;;;;;;;11.13;6.55;;;13.80;96.70;;;;;;5087292;28;20094;-71
2024/01/16 11:59:40;;;;;;;14.88;6.43;;;13.80;96.70;;;;;;5081922;28;20052;-71
2024/01/16 12:02:14;;;;;;;14.77;7.00;;;13.80;96.70;;;;;;5070008;28;20148;-70
2024/01/16 12:04:54;;;;;;;12.77;6.72;;;13.80;96.70;;;;;;5069882;28;20052;-70
2024/01/16 12:07:22;;;;;;;19.15;6.47;;;13.90;96.70;;;;;;5090116;28;20710;-71
2024/01/16 12:09:51;;;;;;;13.63;6.78;;;13.90;96.70;;;;;;5089889;28;20052;-71
2024/01/16 12:12:21;;;;;;;12.25;6.28;;;14.20;96.70;;;;;;5086346;28;20048;-70
2024/01/16 12:14:53;;;;;;;14.02;6.15;;;14.10;96.70;;;;;;5090651;28;20052;-70
2024/01/16 12:17:22;;;;;;;12.07;6.13;;;14.10;96.70;;;;;;5086960;28;20043;-71
2024/01/16 12:20:16;;;;;;;13.48;6.78;;;14.00;96.70;;;;;;5090583;28;20079;-70
2024/01/16 12:22:44;;;;;;;15.77;8.45;;;14.00;96.70;;;;;;5096444;28;20052;-70
2024/01/16 12:25:13;;;;;;;17.70;10.05;;;14.00;96.70;;;;;;5086084;28;20059;-71
2024/01/16 12:27:44;;;;;;;20.20;10.98;;;14.00;96.70;;;;;;5104954;28;20166;-71
2024/01/16 12:30:14;;;;;;;19.75;11.02;;;14.00;96.70;;;;;;5089394;28;20079;-70
2024/01/16 12:32:42;;;;;;;21.98;10.55;;;14.00;96.70;;;;;;5071674;28;20135;-70
2024/01/16 12:35:20;;;;;;;16.77;10.63;;;14.00;96.70;;;;;;5090117;28;20150;-70
2024/01/16 12:38:00;;;;;;;24.60;14.35;;;14.00;96.70;;;;;;5081194;28;20055;-70
2024/01/16 12:40:30;;;;;;;19.30;11.43;;;13.90;96.70;;;;;;5065821;28;20708;-70
2024/01/16 12:43:00;;;;;;;25.33;15.52;;;14.00;96.70;;;;;;5087071;28;20143;-70
2024/01/16 12:45:29;;;;;;;41.03;24.27;;;14.00;96.70;;;;;;5100211;28;20438;-71
2024/01/16 12:48:00;;;;;;;33.13;17.15;;;14.00;96.70;;;;;;5077880;28;20416;-71
2024/01/16 12:50:32;;;;;;;24.50;16.33;;;14.00;96.70;;;;;;5088965;28;20079;-71
2024/01/16 12:53:11;;;;;;;33.88;21.70;;;14.00;96.70;;;;;;5072673;28;20141;-70
2024/01/16 12:56:05;;;;;;;36.40;21.13;;;14.10;96.70;;;;;;5089524;28;20056;-71
2024/01/16 12:58:34;;;;;;;28.73;15.55;;;14.10;96.70;;;;;;5074112;28;20124;-71
2024/01/16 13:01:24;;;;;;;22.48;14.73;;;14.20;96.70;;;;;;5091515;28;20147;-71
2024/01/16 13:04:07;;;;;;;21.00;12.27;;;14.40;96.70;;;;;;5065853;28;20055;-70
2024/01/16 13:06:38;;;;;;;20.02;12.45;;;14.40;96.70;;;;;;5087356;28;20570;-71
2024/01/16 13:09:15;;;;;;;20.00;13.68;;;14.30;96.70;;;;;;5088384;28;20058;-70
2024/01/16 13:11:50;;;;;;;22.55;13.18;;;14.30;96.70;;;;;;5072954;28;20059;-70
2024/01/16 13:14:23;;;;;;;29.88;13.93;;;14.40;96.70;;;;;;5063769;28;20151;-71
2024/01/16 13:16:55;;;;;;;25.15;12.98;;;14.70;96.70;;;;;;5088663;28;20055;-70
2024/01/16 13:19:25;;;;;;;30.98;13.88;;;15.00;96.70;;;;;;5079325;28;20068;-71
2024/01/16 13:21:56;;;;;;;27.45;11.40;;;15.00;96.70;;;;;;5070020;28;20063;-71
2024/01/16 13:24:25;;;;;;;35.47;10.75;;;15.20;96.70;;;;;;5085958;28;20051;-71
2024/01/16 13:26:53;;;;;;;25.45;9.52;;;15.40;96.70;;;;;;5089199;28;20055;-71
2024/01/16 13:29:22;;;;;;;22.02;8.00;;;15.50;96.70;;;;;;5084768;28;20641;-71
2024/01/16 13:31:54;;;;;;;23.77;8.10;;;15.70;96.70;;;;;;5069668;28;20084;-71
2024/01/16 13:34:23;;;;;;;13.65;6.28;;;15.80;96.70;;;;;;5087674;28;20088;-70
2024/01/16 13:36:59;;;;;;;19.08;9.25;;;15.70;96.70;;;;;;5079397;28;20067;-70
2024/01/16 13:39:43;;;;;;;13.15;5.40;;;15.50;96.70;;;;;;5095835;28;20055;-71
2024/01/16 13:42:11;;;;;;;15.55;5.65;;;15.30;96.70;;;;;;5081944;28;20067;-71
2024/01/16 13:44:40;;;;;;;11.30;4.63;;;15.20;96.70;;;;;;5075753;28;20063;-70
2024/01/16 13:47:13;;;;;;;8.68;3.50;;;15.10;96.70;;;;;;5077719;28;20059;-71
2024/01/16 13:49:47;;;;;;;10.25;3.85;;;15.00;96.70;;;;;;5088495;28;20052;-71
2024/01/16 13:52:17;;;;;;;9.05;3.85;;;14.90;96.70;;;;;;5082447;28;20753;-70
2024/01/16 13:54:49;;;;;;;10.63;3.85;;;14.90;96.70;;;;;;5086205;28;20511;-70
2024/01/16 13:57:19;;;;;;;8.73;3.45;;;14.80;96.70;;;;;;5086737;28;20060;-71
2024/01/16 13:59:48;;;;;;;19.63;4.22;;;14.80;96.70;;;;;;5080333;28;20117;-70
2024/01/16 14:02:16;;;;;;;23.73;4.80;;;14.70;96.70;;;;;;5087880;28;20055;-71
2024/01/16 14:04:45;;;;;;;26.33;5.32;;;14.70;96.70;;;;;;5082524;28;20096;-71
2024/01/16 14:07:15;;;;;;;24.25;5.47;;;14.60;96.70;;;;;;5082887;28;20075;-71
2024/01/16 14:09:46;;;;;;;13.13;5.00;;;14.60;96.70;;;;;;5086432;28;20064;-71
2024/01/16 14:12:15;;;;;;;9.98;5.10;;;14.60;96.70;;;;;;5084406;28;20071;-71
2024/01/16 14:14:44;;;;;;;7.90;3.83;;;14.50;96.70;;;;;;5086308;28;20052;-71
2024/01/16 14:17:15;;;;;;;10.25;3.20;;;14.40;96.70;;;;;;5086213;28;20070;-72
2024/01/16 14:19:44;;;;;;;7.25;3.05;;;14.30;96.70;;;;;;5082994;27;20079;-72
2024/01/16 14:22:12;;;;;;;8.18;3.35;;;14.20;96.70;;;;;;5093763;28;20522;-71
2024/01/16 14:24:41;;;;;;;10.52;4.10;;;14.20;96.70;;;;;;5088551;28;20058;-71
2024/01/16 14:27:16;;;;;;;6.95;3.50;;;14.10;96.70;;;;;;5087309;28;20056;-72
2024/01/16 14:29:45;;;;;;;12.60;4.65;;;14.10;96.70;;;;;;5078321;28;20047;-71
2024/01/16 14:32:14;;;;;;;10.05;3.60;;;14.10;96.70;;;;;;5109639;27;20415;-71
2024/01/16 14:34:43;;;;;;;11.68;4.47;;;14.10;96.70;;;;;;5073468;28;20052;-71
2024/01/16 14:37:13;;;;;;;12.82;3.75;;;14.00;96.70;;;;;;5073691;28;20052;-72
2024/01/16 14:39:42;;;;;;;10.35;3.78;;;14.00;96.70;;;;;;5072194;28;20421;-71
2024/01/16 14:42:11;;;;;;;10.57;3.53;;;13.90;96.70;;;;;;5087638;28;20108;-71
2024/01/16 14:44:42;;;;;;;11.05;3.97;;;13.90;96.70;;;;;;5086406;28;20074;-72